createdAt,value
2023-05-19T00:01:20.609Z,6.38
2023-05-19T00:03:59.052Z,6.28
2023-05-19T00:06:27.332Z,6.25
2023-05-19T00:09:01.726Z,6.22
2023-05-19T00:11:29.452Z,6.25
2023-05-19T00:13:59.601Z,6.25
2023-05-19T00:16:28.687Z,6.23
2023-05-19T00:18:57.109Z,6.18
2023-05-19T00:21:24.187Z,6.12
2023-05-19T00:23:50.898Z,5.98
2023-05-19T00:26:18.039Z,5.87
2023-05-19T00:28:44.489Z,5.82
2023-05-19T00:31:11.131Z,5.77
2023-05-19T00:33:37.616Z,5.75
2023-05-19T00:36:04.644Z,5.72
2023-05-19T00:38:32.633Z,5.66
2023-05-19T00:41:00.055Z,5.64
2023-05-19T00:43:27.363Z,5.63
2023-05-19T00:45:54.035Z,5.54
2023-05-19T00:48:21.319Z,5.41
2023-05-19T00:50:49.588Z,5.42
2023-05-19T00:53:18.177Z,5.43
2023-05-19T00:55:45.861Z,5.42
2023-05-19T00:58:13.889Z,5.40
2023-05-19T01:00:41.050Z,5.47
2023-05-19T01:03:11.362Z,5.52
2023-05-19T01:05:42.250Z,5.49
2023-05-19T01:08:09.026Z,5.44
2023-05-19T01:10:35.950Z,5.38
2023-05-19T01:13:07.264Z,5.21
2023-05-19T01:15:40.733Z,5.13
2023-05-19T01:18:16.809Z,5.10
2023-05-19T01:20:50.828Z,5.08
2023-05-19T01:23:44.109Z,5.06
2023-05-19T01:26:44.107Z,5.00
2023-05-19T01:30:01.640Z,4.96
2023-05-19T01:32:31.387Z,4.99
2023-05-19T01:34:58.726Z,4.98
2023-05-19T01:37:27.121Z,5.03
2023-05-19T01:39:55.606Z,5.05
2023-05-19T01:42:23.429Z,5.06
2023-05-19T01:44:51.130Z,5.03
2023-05-19T01:47:18.548Z,5.05
2023-05-19T01:49:45.037Z,5.03
2023-05-19T01:52:11.540Z,4.93
2023-05-19T01:54:38.112Z,4.85
2023-05-19T01:57:23.786Z,4.81
2023-05-19T02:00:07.869Z,4.76
2023-05-19T02:03:08.010Z,4.70
2023-05-19T02:05:59.649Z,4.69
2023-05-19T02:08:50.787Z,4.68
2023-05-19T02:11:31.202Z,4.69
2023-05-19T02:14:03.105Z,4.70
2023-05-19T02:16:30.367Z,4.77
2023-05-19T02:18:57.296Z,4.80
2023-05-19T02:21:24.293Z,4.78
2023-05-19T02:23:50.937Z,4.75
2023-05-19T02:26:17.390Z,4.74
2023-05-19T02:28:43.820Z,4.71
2023-05-19T02:31:10.699Z,4.68
2023-05-19T02:33:37.430Z,4.71
2023-05-19T02:36:04.492Z,4.74
2023-05-19T02:38:30.939Z,4.71
2023-05-19T02:40:57.402Z,4.70
2023-05-19T02:43:23.889Z,4.75
2023-05-19T02:45:50.343Z,4.77
2023-05-19T02:48:16.759Z,4.77
2023-05-19T02:50:43.684Z,4.70
2023-05-19T02:53:10.266Z,4.65
2023-05-19T02:55:37.728Z,4.58
2023-05-19T02:58:04.268Z,4.60
2023-05-19T03:00:30.954Z,4.59
2023-05-19T03:03:02.621Z,4.66
2023-05-19T03:05:30.289Z,4.64
2023-05-19T03:07:56.901Z,4.65
2023-05-19T03:10:23.456Z,4.64
2023-05-19T03:12:50.328Z,4.62
2023-05-19T03:15:17.176Z,4.55
2023-05-19T03:17:43.857Z,4.47
2023-05-19T03:20:10.955Z,4.37
2023-05-19T03:22:37.816Z,4.26
2023-05-19T03:25:05.203Z,4.24
2023-05-19T03:27:31.624Z,4.24
2023-05-19T03:29:58.086Z,4.20
2023-05-19T03:32:25.031Z,4.17
2023-05-19T03:34:51.742Z,4.15
2023-05-19T03:37:18.222Z,4.15
2023-05-19T03:39:44.826Z,4.17
2023-05-19T03:42:11.311Z,4.18
2023-05-19T03:44:37.786Z,4.19
2023-05-19T03:47:04.681Z,4.17
2023-05-19T03:49:31.184Z,4.16
2023-05-19T03:51:58.141Z,4.14
2023-05-19T03:54:24.612Z,4.10
2023-05-19T03:56:51.897Z,4.11
2023-05-19T03:59:18.349Z,4.11
2023-05-19T04:01:45.330Z,4.14
2023-05-19T04:04:12.070Z,4.18
2023-05-19T04:06:38.691Z,4.25
2023-05-19T04:09:13.037Z,4.27
2023-05-19T04:11:40.924Z,4.32
2023-05-19T04:14:07.961Z,4.36
2023-05-19T04:16:34.952Z,4.38
2023-05-19T04:19:02.021Z,4.43
2023-05-19T04:21:28.490Z,4.50
2023-05-19T04:23:55.400Z,4.59
2023-05-19T04:26:22.576Z,4.70
2023-05-19T04:28:49.068Z,4.74
2023-05-19T04:31:15.641Z,4.77
2023-05-19T04:33:46.077Z,4.80
2023-05-19T04:36:14.099Z,5.06
2023-05-19T04:38:40.670Z,5.32
2023-05-19T04:41:10.803Z,6.11
2023-05-19T04:43:41.951Z,7.02
2023-05-19T04:46:13.437Z,9.09
2023-05-19T04:48:41.016Z,11.35
2023-05-19T04:51:07.867Z,13.35
2023-05-19T04:53:34.493Z,14.73
2023-05-19T04:56:02.368Z,15.90
2023-05-19T04:58:28.792Z,16.65
2023-05-19T05:00:58.561Z,17.30
2023-05-19T05:03:26.183Z,18.11
2023-05-19T05:05:52.892Z,18.65
2023-05-19T05:08:23.189Z,18.66
2023-05-19T05:10:53.259Z,18.40
2023-05-19T05:13:24.416Z,18.08
2023-05-19T05:15:52.456Z,18.18
2023-05-19T05:18:19.227Z,18.32
2023-05-19T05:20:47.025Z,17.91
2023-05-19T05:23:16.922Z,18.26
2023-05-19T05:25:44.607Z,18.21
2023-05-19T05:28:11.368Z,17.42
2023-05-19T05:30:38.213Z,17.19
2023-05-19T05:33:05.137Z,17.13
2023-05-19T05:35:32.185Z,16.47
2023-05-19T05:37:58.993Z,16.48
2023-05-19T05:40:25.573Z,16.15
2023-05-19T05:42:52.341Z,16.58
2023-05-19T05:45:18.762Z,16.17
2023-05-19T05:47:45.470Z,15.73
2023-05-19T05:50:13.323Z,15.84
2023-05-19T05:52:41.280Z,15.70
2023-05-19T05:55:08.491Z,15.28
2023-05-19T05:57:36.431Z,15.05
2023-05-19T06:00:07.121Z,14.38
2023-05-19T06:02:33.804Z,14.13
2023-05-19T06:05:00.721Z,14.33
2023-05-19T06:07:27.465Z,14.60
2023-05-19T06:09:53.900Z,14.23
2023-05-19T06:12:20.555Z,13.73
2023-05-19T06:14:47.071Z,13.37
2023-05-19T06:17:13.730Z,13.12
2023-05-19T06:19:40.174Z,12.98
2023-05-19T06:22:06.667Z,12.80
2023-05-19T06:24:33.173Z,12.89
2023-05-19T06:27:00.128Z,12.90
2023-05-19T06:29:26.660Z,13.06
2023-05-19T06:31:53.564Z,13.16
2023-05-19T06:34:21.027Z,13.23
2023-05-19T06:36:47.865Z,13.35
2023-05-19T06:39:14.328Z,13.40
2023-05-19T06:41:40.793Z,13.30
2023-05-19T06:44:09.039Z,13.24
2023-05-19T06:46:35.612Z,13.31
2023-05-19T06:49:02.514Z,13.34
2023-05-19T06:51:29.195Z,13.02
2023-05-19T06:53:55.968Z,13.07
2023-05-19T06:56:22.973Z,13.02
2023-05-19T06:58:49.748Z,13.19
2023-05-19T07:01:16.179Z,13.35
2023-05-19T07:03:43.486Z,13.42
2023-05-19T07:06:10.091Z,13.47
2023-05-19T07:08:37.236Z,13.47
2023-05-19T07:11:03.955Z,13.53
2023-05-19T07:13:30.603Z,13.59
2023-05-19T07:15:57.919Z,13.59
2023-05-19T07:18:25.359Z,13.48
2023-05-19T07:20:53.929Z,13.42
2023-05-19T07:23:20.516Z,13.43
2023-05-19T07:25:47.091Z,13.60
2023-05-19T07:28:13.589Z,13.90
2023-05-19T07:30:40.206Z,13.84
2023-05-19T07:33:07.111Z,13.77
2023-05-19T07:35:35.688Z,13.80
2023-05-19T07:38:04.214Z,13.82
2023-05-19T07:40:31.110Z,13.99
2023-05-19T07:42:57.936Z,14.00
2023-05-19T07:45:24.555Z,14.00
2023-05-19T07:47:51.177Z,14.20
2023-05-19T07:50:18.165Z,14.19
2023-05-19T07:52:44.760Z,14.41
2023-05-19T07:55:11.976Z,14.55
2023-05-19T07:57:38.393Z,14.54
2023-05-19T08:00:09.899Z,14.64
2023-05-19T08:02:36.430Z,14.62
2023-05-19T08:05:03.269Z,14.80
2023-05-19T08:07:30.106Z,14.89
2023-05-19T08:09:56.510Z,15.08
2023-05-19T08:12:23.346Z,15.12
2023-05-19T08:14:49.924Z,15.08
2023-05-19T08:17:16.432Z,14.89
2023-05-19T08:19:43.292Z,15.07
2023-05-19T08:22:10.253Z,15.13
2023-05-19T08:24:36.925Z,15.25
2023-05-19T08:27:05.117Z,15.35
2023-05-19T08:29:31.896Z,15.41
2023-05-19T08:32:00.284Z,15.52
2023-05-19T08:34:26.763Z,15.42
2023-05-19T08:36:53.489Z,15.58
2023-05-19T08:39:24.552Z,15.72
2023-05-19T08:41:51.017Z,15.87
2023-05-19T08:44:19.038Z,16.00
2023-05-19T08:46:47.767Z,16.15
2023-05-19T08:49:16.928Z,16.36
2023-05-19T08:52:12.281Z,16.40
2023-05-19T08:54:48.262Z,16.44
2023-05-19T08:57:15.001Z,16.33
2023-05-19T08:59:43.959Z,16.33
2023-05-19T09:02:12.973Z,16.25
2023-05-19T09:04:41.463Z,16.35
2023-05-19T09:07:09.409Z,16.05
2023-05-19T09:09:35.966Z,16.15
2023-05-19T09:12:02.971Z,16.16
2023-05-19T09:14:29.557Z,16.21
2023-05-19T09:16:56.908Z,16.20
2023-05-19T09:19:28.401Z,16.24
2023-05-19T09:22:03.843Z,16.15
2023-05-19T09:24:31.743Z,16.06
2023-05-19T09:27:00.047Z,16.13
2023-05-19T09:29:26.967Z,16.10
2023-05-19T09:31:56.059Z,16.17
2023-05-19T09:34:25.270Z,16.20
2023-05-19T09:36:53.175Z,16.52
2023-05-19T09:39:21.857Z,16.99
2023-05-19T09:41:53.771Z,17.23
2023-05-19T09:44:20.158Z,17.46
2023-05-19T09:46:51.136Z,17.43
2023-05-19T09:49:22.059Z,17.52
2023-05-19T09:51:56.606Z,17.77
2023-05-19T09:54:24.827Z,17.87
2023-05-19T09:56:56.459Z,18.28
2023-05-19T09:59:25.515Z,18.04
2023-05-19T10:01:59.353Z,18.02
2023-05-19T10:04:28.000Z,18.28
2023-05-19T10:06:56.060Z,18.26
2023-05-19T10:09:27.806Z,18.36
2023-05-19T10:11:56.161Z,18.66
2023-05-19T10:14:28.143Z,18.57
2023-05-19T10:16:57.283Z,18.70
2023-05-19T10:19:26.816Z,18.71
2023-05-19T10:21:54.011Z,19.03
2023-05-19T10:24:21.373Z,18.96
2023-05-19T10:26:55.351Z,18.39
2023-05-19T10:29:27.361Z,18.78
2023-05-19T10:31:57.021Z,18.79
2023-05-19T10:34:57.757Z,18.80
2023-05-19T10:37:48.760Z,19.21
2023-05-19T10:40:26.708Z,19.51
2023-05-19T10:43:09.117Z,19.45
2023-05-19T10:45:52.330Z,19.18
2023-05-19T10:48:22.959Z,19.47
2023-05-19T10:50:54.019Z,19.34
2023-05-19T10:53:23.268Z,19.24
2023-05-19T10:55:59.459Z,19.34
2023-05-19T10:58:39.511Z,19.32
2023-05-19T11:01:17.540Z,19.30
2023-05-19T11:03:48.144Z,19.51
2023-05-19T11:06:29.057Z,19.46
2023-05-19T11:09:01.042Z,19.92
2023-05-19T11:11:52.524Z,19.57
2023-05-19T11:14:23.286Z,19.94
2023-05-19T11:16:52.012Z,19.97
2023-05-19T11:19:32.297Z,19.78
2023-05-19T11:22:10.236Z,20.05
2023-05-19T11:24:37.522Z,20.47
2023-05-19T11:27:26.279Z,20.40
2023-05-19T11:29:55.161Z,20.21
2023-05-19T11:32:25.713Z,20.24
2023-05-19T11:34:53.415Z,20.07
2023-05-19T11:37:19.827Z,19.35
2023-05-19T11:39:47.386Z,19.36
2023-05-19T11:42:14.327Z,20.08
2023-05-19T11:44:41.750Z,20.07
2023-05-19T11:47:08.595Z,19.61
2023-05-19T11:49:35.781Z,19.57
2023-05-19T11:52:03.279Z,19.48
2023-05-19T11:54:32.412Z,19.60
2023-05-19T11:57:03.836Z,19.34
2023-05-19T11:59:36.192Z,19.73
2023-05-19T12:02:26.127Z,20.12
2023-05-19T12:04:53.963Z,19.80
2023-05-19T12:07:23.348Z,19.96
2023-05-19T12:09:51.628Z,20.23
2023-05-19T12:12:19.544Z,19.82
2023-05-19T12:14:47.032Z,19.91
2023-05-19T12:17:14.979Z,20.22
2023-05-19T12:19:44.832Z,20.43
2023-05-19T12:22:12.434Z,20.54
2023-05-19T12:24:40.529Z,20.22
2023-05-19T12:27:13.627Z,20.39
2023-05-19T12:29:41.397Z,20.65
2023-05-19T12:32:09.367Z,20.75
2023-05-19T12:34:37.510Z,21.01
2023-05-19T12:37:04.998Z,20.51
2023-05-19T12:39:32.431Z,19.90
2023-05-19T12:42:09.628Z,20.05
2023-05-19T12:44:43.717Z,20.05
2023-05-19T12:47:10.235Z,20.07
2023-05-19T12:49:36.791Z,20.19
2023-05-19T12:52:07.157Z,20.35
2023-05-19T12:54:37.604Z,20.83
2023-05-19T12:57:06.123Z,20.41
2023-05-19T12:59:38.901Z,20.73
2023-05-19T13:02:06.554Z,20.93
2023-05-19T13:04:33.198Z,19.97
2023-05-19T13:06:59.745Z,19.68
2023-05-19T13:09:28.012Z,20.40
2023-05-19T13:11:54.856Z,20.68
2023-05-19T13:14:21.805Z,20.12
2023-05-19T13:16:48.254Z,20.28
2023-05-19T13:19:25.471Z,20.73
2023-05-19T13:21:52.581Z,20.55
2023-05-19T13:24:19.451Z,20.83
2023-05-19T13:26:46.046Z,21.28
2023-05-19T13:29:12.595Z,21.34
2023-05-19T13:31:39.417Z,21.71
2023-05-19T13:34:05.864Z,21.67
2023-05-19T13:36:33.497Z,21.70
2023-05-19T13:39:00.794Z,21.62
2023-05-19T13:41:29.218Z,22.11
2023-05-19T13:43:59.802Z,22.50
2023-05-19T13:46:36.358Z,22.12
2023-05-19T13:49:10.753Z,21.40
2023-05-19T13:51:37.578Z,21.24
2023-05-19T13:54:05.299Z,21.32
2023-05-19T13:56:31.820Z,21.33
2023-05-19T13:58:58.541Z,20.94
2023-05-19T14:01:25.060Z,20.80
2023-05-19T14:03:52.375Z,20.03
2023-05-19T14:06:19.012Z,20.10
2023-05-19T14:08:45.875Z,20.46
2023-05-19T14:11:19.871Z,20.74
2023-05-19T14:13:51.745Z,20.60
2023-05-19T14:16:20.363Z,20.42
2023-05-19T14:18:46.878Z,20.54
2023-05-19T14:21:13.799Z,20.75
2023-05-19T14:23:40.316Z,21.07
2023-05-19T14:26:07.239Z,20.77
2023-05-19T14:28:33.879Z,21.16
2023-05-19T14:31:00.377Z,21.12
2023-05-19T14:33:26.952Z,21.03
2023-05-19T14:35:53.557Z,20.63
2023-05-19T14:38:20.585Z,20.23
2023-05-19T14:40:48.422Z,20.14
2023-05-19T14:43:15.302Z,20.00
2023-05-19T14:45:42.051Z,20.01
2023-05-19T14:48:10.664Z,20.02
2023-05-19T14:50:37.887Z,20.79
2023-05-19T14:53:04.540Z,21.32
2023-05-19T14:55:31.460Z,21.10
2023-05-19T14:57:57.903Z,20.87
2023-05-19T15:00:27.900Z,20.75
2023-05-19T15:02:54.726Z,20.85
2023-05-19T15:05:22.838Z,20.65
2023-05-19T15:07:49.672Z,20.45
2023-05-19T15:10:17.464Z,20.48
2023-05-19T15:12:43.887Z,20.64
2023-05-19T15:15:11.323Z,20.90
2023-05-19T15:17:37.981Z,21.01
2023-05-19T15:20:04.851Z,21.03
2023-05-19T15:22:31.289Z,20.98
2023-05-19T15:24:57.754Z,20.85
2023-05-19T15:27:24.306Z,20.52
2023-05-19T15:29:50.823Z,20.48
2023-05-19T15:32:17.327Z,20.41
2023-05-19T15:34:44.309Z,20.28
2023-05-19T15:37:10.754Z,20.01
2023-05-19T15:39:37.189Z,20.02
2023-05-19T15:42:04.220Z,19.82
2023-05-19T15:44:30.788Z,19.77
2023-05-19T15:46:57.611Z,19.75
2023-05-19T15:49:25.116Z,19.71
2023-05-19T15:51:51.878Z,19.68
2023-05-19T15:54:18.595Z,19.96
2023-05-19T15:56:45.386Z,20.20
2023-05-19T15:59:12.182Z,20.00
2023-05-19T16:01:38.723Z,19.94
2023-05-19T16:04:06.585Z,19.97
2023-05-19T16:06:33.146Z,19.82
2023-05-19T16:08:59.843Z,19.80
2023-05-19T16:11:27.070Z,20.23
2023-05-19T16:13:53.665Z,20.51
2023-05-19T16:16:20.883Z,20.52
2023-05-19T16:18:47.383Z,20.43
2023-05-19T16:21:14.169Z,20.66
2023-05-19T16:23:40.655Z,21.04
2023-05-19T16:26:07.444Z,20.65
2023-05-19T16:28:34.160Z,20.50
2023-05-19T16:31:00.716Z,20.19
2023-05-19T16:33:27.934Z,20.20
2023-05-19T16:35:54.580Z,20.05
2023-05-19T16:38:21.435Z,19.81
2023-05-19T16:40:47.905Z,19.53
2023-05-19T16:43:14.640Z,19.38
2023-05-19T16:45:41.306Z,19.12
2023-05-19T16:48:08.294Z,18.99
2023-05-19T16:50:35.238Z,18.82
2023-05-19T16:53:02.225Z,18.78
2023-05-19T16:55:28.685Z,18.53
2023-05-19T16:57:55.523Z,18.54
2023-05-19T17:00:22.303Z,18.46
2023-05-19T17:02:49.186Z,18.29
2023-05-19T17:05:15.868Z,18.36
2023-05-19T17:07:42.968Z,18.31
2023-05-19T17:10:09.922Z,18.34
2023-05-19T17:12:36.860Z,18.34
2023-05-19T17:15:03.623Z,18.41
2023-05-19T17:17:30.082Z,18.46
2023-05-19T17:19:56.717Z,18.70
2023-05-19T17:22:23.208Z,18.82
2023-05-19T17:24:50.165Z,18.72
2023-05-19T17:27:16.617Z,18.72
2023-05-19T17:29:43.682Z,18.68
2023-05-19T17:32:10.354Z,18.65
2023-05-19T17:34:37.046Z,18.59
2023-05-19T17:37:03.587Z,18.44
2023-05-19T17:39:30.080Z,18.43
2023-05-19T17:41:56.613Z,18.32
2023-05-19T17:44:23.441Z,18.18
2023-05-19T17:46:50.195Z,18.15
2023-05-19T17:49:16.705Z,18.22
2023-05-19T17:51:44.948Z,18.27
2023-05-19T17:54:11.661Z,18.06
2023-05-19T17:56:42.874Z,17.91
2023-05-19T17:59:09.724Z,17.91
2023-05-19T18:01:36.494Z,17.81
2023-05-19T18:04:04.078Z,17.80
2023-05-19T18:06:31.826Z,17.73
2023-05-19T18:09:01.094Z,17.62
2023-05-19T18:11:27.820Z,17.48
2023-05-19T18:13:54.362Z,17.42
2023-05-19T18:16:20.870Z,17.43
2023-05-19T18:18:50.267Z,17.32
2023-05-19T18:21:17.932Z,17.21
2023-05-19T18:23:45.380Z,17.31
2023-05-19T18:26:15.857Z,17.11
2023-05-19T18:28:43.321Z,17.15
2023-05-19T18:31:15.512Z,17.06
2023-05-19T18:33:42.076Z,16.96
2023-05-19T18:36:09.183Z,16.97
2023-05-19T18:38:35.720Z,16.86
2023-05-19T18:41:02.594Z,16.75
2023-05-19T18:43:30.128Z,16.70
2023-05-19T18:45:57.070Z,16.60
2023-05-19T18:48:25.469Z,16.54
2023-05-19T18:50:51.955Z,16.40
2023-05-19T18:53:18.821Z,16.31
2023-05-19T18:55:45.695Z,16.22
2023-05-19T18:58:12.162Z,16.15
2023-05-19T19:00:39.051Z,16.09
2023-05-19T19:03:05.675Z,15.98
2023-05-19T19:05:32.383Z,16.03
2023-05-19T19:07:58.822Z,15.91
2023-05-19T19:10:25.981Z,15.93
2023-05-19T19:12:52.671Z,15.78
2023-05-19T19:15:19.119Z,15.85
2023-05-19T19:17:46.612Z,15.85
2023-05-19T19:20:13.395Z,15.85
2023-05-19T19:22:40.290Z,15.79
2023-05-19T19:25:07.038Z,15.70
2023-05-19T19:27:35.799Z,15.64
2023-05-19T19:30:02.509Z,15.65
2023-05-19T19:32:31.292Z,15.46
2023-05-19T19:34:58.368Z,15.35
2023-05-19T19:37:25.073Z,15.21
2023-05-19T19:39:51.757Z,15.08
2023-05-19T19:42:18.811Z,14.90
2023-05-19T19:44:45.941Z,14.72
2023-05-19T19:47:12.475Z,14.59
2023-05-19T19:49:39.348Z,14.45
2023-05-19T19:52:05.995Z,14.33
2023-05-19T19:54:32.692Z,14.15
2023-05-19T19:56:59.617Z,13.98
2023-05-19T19:59:26.959Z,13.83
2023-05-19T20:01:55.096Z,13.69
2023-05-19T20:04:21.701Z,13.58
2023-05-19T20:06:49.999Z,13.46
2023-05-19T20:09:17.053Z,13.31
2023-05-19T20:11:43.933Z,13.24
2023-05-19T20:14:10.708Z,13.16
2023-05-19T20:16:37.424Z,13.11
2023-05-19T20:19:04.981Z,13.01
2023-05-19T20:21:32.405Z,13.01
2023-05-19T20:23:59.385Z,12.94
2023-05-19T20:26:25.949Z,12.80
2023-05-19T20:28:52.438Z,12.66
2023-05-19T20:31:19.132Z,12.67
2023-05-19T20:33:45.961Z,12.59
2023-05-19T20:36:12.557Z,12.51
2023-05-19T20:38:39.047Z,12.47
2023-05-19T20:41:05.539Z,12.39
2023-05-19T20:43:33.288Z,12.30
2023-05-19T20:46:01.361Z,12.16
2023-05-19T20:48:28.330Z,12.02
2023-05-19T20:50:54.863Z,11.92
2023-05-19T20:53:21.853Z,11.85
2023-05-19T20:55:48.642Z,11.82
2023-05-19T20:58:15.418Z,11.78
2023-05-19T21:00:41.888Z,11.73
2023-05-19T21:03:08.744Z,11.68
2023-05-19T21:05:36.573Z,11.63
2023-05-19T21:08:03.242Z,11.56
2023-05-19T21:10:30.074Z,11.60
2023-05-19T21:12:58.692Z,11.54
2023-05-19T21:15:25.484Z,11.49
2023-05-19T21:17:51.909Z,11.45
2023-05-19T21:20:18.445Z,11.41
2023-05-19T21:22:44.847Z,11.36
2023-05-19T21:25:11.569Z,11.31
2023-05-19T21:27:39.426Z,11.24
2023-05-19T21:30:06.833Z,11.17
2023-05-19T21:32:33.353Z,11.13
2023-05-19T21:35:00.168Z,11.13
2023-05-19T21:37:26.919Z,11.09
2023-05-19T21:39:53.540Z,11.04
2023-05-19T21:42:20.000Z,11.02
2023-05-19T21:44:46.872Z,10.98
2023-05-19T21:47:13.336Z,10.90
2023-05-19T21:49:40.837Z,10.78
2023-05-19T21:52:07.998Z,10.70
2023-05-19T21:54:34.804Z,10.67
2023-05-19T21:57:02.509Z,10.61
2023-05-19T21:59:28.946Z,10.58
2023-05-19T22:01:55.693Z,10.54
2023-05-19T22:04:22.543Z,10.46
2023-05-19T22:06:49.333Z,10.41
2023-05-19T22:09:15.857Z,10.40
2023-05-19T22:11:42.314Z,10.37
2023-05-19T22:14:09.358Z,10.31
2023-05-19T22:16:35.865Z,10.24
2023-05-19T22:19:02.379Z,10.05
2023-05-19T22:21:29.553Z,9.88
2023-05-19T22:23:56.106Z,9.82
2023-05-19T22:26:22.770Z,9.71
2023-05-19T22:28:49.881Z,9.69
2023-05-19T22:31:17.087Z,9.68
2023-05-19T22:33:43.552Z,9.59
2023-05-19T22:36:11.211Z,9.53
2023-05-19T22:38:37.793Z,9.56
2023-05-19T22:41:04.317Z,9.48
2023-05-19T22:43:31.084Z,9.36
2023-05-19T22:45:57.618Z,9.32
2023-05-19T22:48:24.263Z,9.28
2023-05-19T22:50:50.901Z,9.18
2023-05-19T22:53:17.730Z,9.09
2023-05-19T22:55:44.196Z,9.07
2023-05-19T22:58:10.706Z,9.07
2023-05-19T23:00:37.132Z,9.10
2023-05-19T23:03:03.796Z,9.04
2023-05-19T23:05:30.463Z,8.90
2023-05-19T23:07:58.412Z,8.87
2023-05-19T23:10:25.250Z,8.88
2023-05-19T23:12:52.275Z,8.87
2023-05-19T23:15:19.269Z,8.90
2023-05-19T23:17:45.703Z,8.92
2023-05-19T23:20:13.000Z,8.93
2023-05-19T23:22:39.506Z,8.91
2023-05-19T23:25:07.761Z,8.92
2023-05-19T23:27:35.940Z,8.96
2023-05-19T23:30:03.406Z,9.00
2023-05-19T23:32:30.006Z,9.05
2023-05-19T23:34:56.542Z,9.07
2023-05-19T23:37:23.383Z,9.01
2023-05-19T23:39:49.854Z,8.96
2023-05-19T23:42:16.282Z,8.92
2023-05-19T23:44:43.041Z,8.91
2023-05-19T23:47:09.717Z,8.93
2023-05-19T23:49:36.714Z,8.93
2023-05-19T23:52:03.333Z,8.95
2023-05-19T23:54:30.808Z,8.91
2023-05-19T23:56:58.284Z,8.88
2023-05-19T23:59:25.149Z,8.86
